sensor_id;sensor_type;location;lat;lon;timestamp;P1;durP1;ratioP1;P2;durP2;ratioP2
49592;SDS011;35499;51.482;4.264;2023-02-28T00:02:16;6.45;;;2.70;;
49592;SDS011;35499;51.482;4.264;2023-02-28T00:04:42;4.63;;;2.28;;
49592;SDS011;35499;51.482;4.264;2023-02-28T00:07:08;5.22;;;2.63;;
49592;SDS011;35499;51.482;4.264;2023-02-28T00:09:33;4.70;;;2.75;;
49592;SDS011;35499;51.482;4.264;2023-02-28T00:11:59;3.87;;;2.87;;
49592;SDS011;35499;51.482;4.264;2023-02-28T00:14:24;5.07;;;2.70;;
49592;SDS011;35499;51.482;4.264;2023-02-28T00:16:49;6.23;;;3.00;;
49592;SDS011;35499;51.482;4.264;2023-02-28T00:19:14;4.07;;;2.47;;
49592;SDS011;35499;51.482;4.264;2023-02-28T00:21:40;6.33;;;2.90;;
49592;SDS011;35499;51.482;4.264;2023-02-28T00:24:06;6.07;;;2.30;;
49592;SDS011;35499;51.482;4.264;2023-02-28T00:26:31;4.38;;;2.10;;
49592;SDS011;35499;51.482;4.264;2023-02-28T00:28:57;4.43;;;2.67;;
49592;SDS011;35499;51.482;4.264;2023-02-28T00:31:22;4.90;;;2.83;;
49592;SDS011;35499;51.482;4.264;2023-02-28T00:33:47;3.97;;;2.47;;
49592;SDS011;35499;51.482;4.264;2023-02-28T00:36:13;4.87;;;2.60;;
49592;SDS011;35499;51.482;4.264;2023-02-28T00:38:38;4.93;;;2.50;;
49592;SDS011;35499;51.482;4.264;2023-02-28T00:41:05;4.70;;;2.28;;
49592;SDS011;35499;51.482;4.264;2023-02-28T00:43:31;6.18;;;3.35;;
49592;SDS011;35499;51.482;4.264;2023-02-28T00:45:58;4.97;;;2.45;;
49592;SDS011;35499;51.482;4.264;2023-02-28T00:48:23;10.77;;;2.55;;
49592;SDS011;35499;51.482;4.264;2023-02-28T00:50:49;7.57;;;2.63;;
49592;SDS011;35499;51.482;4.264;2023-02-28T00:53:14;4.65;;;2.80;;
49592;SDS011;35499;51.482;4.264;2023-02-28T00:55:40;5.95;;;3.20;;
49592;SDS011;35499;51.482;4.264;2023-02-28T00:58:05;5.80;;;2.47;;
49592;SDS011;35499;51.482;4.264;2023-02-28T01:00:30;6.23;;;2.43;;
49592;SDS011;35499;51.482;4.264;2023-02-28T01:02:56;3.10;;;2.60;;
49592;SDS011;35499;51.482;4.264;2023-02-28T01:05:21;5.37;;;2.20;;
49592;SDS011;35499;51.482;4.264;2023-02-28T01:07:46;3.70;;;1.97;;
49592;SDS011;35499;51.482;4.264;2023-02-28T01:10:12;5.03;;;2.60;;
49592;SDS011;35499;51.482;4.264;2023-02-28T01:12:37;5.25;;;2.58;;
49592;SDS011;35499;51.482;4.264;2023-02-28T01:15:03;5.18;;;2.40;;
49592;SDS011;35499;51.482;4.264;2023-02-28T01:17:29;4.05;;;2.42;;
49592;SDS011;35499;51.482;4.264;2023-02-28T01:19:54;4.53;;;2.73;;
49592;SDS011;35499;51.482;4.264;2023-02-28T01:22:21;7.30;;;2.50;;
49592;SDS011;35499;51.482;4.264;2023-02-28T01:24:46;5.05;;;2.17;;
49592;SDS011;35499;51.482;4.264;2023-02-28T01:27:12;5.13;;;2.33;;
49592;SDS011;35499;51.482;4.264;2023-02-28T01:29:38;5.90;;;2.80;;
49592;SDS011;35499;51.482;4.264;2023-02-28T01:32:03;5.67;;;2.77;;
49592;SDS011;35499;51.482;4.264;2023-02-28T01:34:29;5.68;;;2.05;;
49592;SDS011;35499;51.482;4.264;2023-02-28T01:36:54;4.73;;;2.60;;
49592;SDS011;35499;51.482;4.264;2023-02-28T01:39:19;6.80;;;2.60;;
49592;SDS011;35499;51.482;4.264;2023-02-28T01:41:44;4.50;;;2.35;;
49592;SDS011;35499;51.482;4.264;2023-02-28T01:47:13;5.20;;;3.00;;
49592;SDS011;35499;51.482;4.264;2023-02-28T01:49:39;5.47;;;2.40;;
49592;SDS011;35499;51.482;4.264;2023-02-28T01:52:04;4.38;;;2.60;;
49592;SDS011;35499;51.482;4.264;2023-02-28T01:54:31;4.00;;;2.97;;
49592;SDS011;35499;51.482;4.264;2023-02-28T01:57:01;9.10;;;2.67;;
49592;SDS011;35499;51.482;4.264;2023-02-28T01:59:35;4.15;;;2.53;;
49592;SDS011;35499;51.482;4.264;2023-02-28T02:02:10;4.93;;;2.33;;
49592;SDS011;35499;51.482;4.264;2023-02-28T02:04:38;3.63;;;2.67;;
49592;SDS011;35499;51.482;4.264;2023-02-28T02:07:07;5.97;;;3.40;;
49592;SDS011;35499;51.482;4.264;2023-02-28T02:09:34;6.53;;;2.70;;
49592;SDS011;35499;51.482;4.264;2023-02-28T02:11:59;4.33;;;2.50;;
49592;SDS011;35499;51.482;4.264;2023-02-28T02:14:56;4.50;;;2.33;;
49592;SDS011;35499;51.482;4.264;2023-02-28T02:17:42;6.30;;;2.83;;
49592;SDS011;35499;51.482;4.264;2023-02-28T02:23:30;5.15;;;2.40;;
49592;SDS011;35499;51.482;4.264;2023-02-28T02:31:49;4.75;;;2.42;;
49592;SDS011;35499;51.482;4.264;2023-02-28T02:40:15;4.15;;;2.00;;
49592;SDS011;35499;51.482;4.264;2023-02-28T02:45:39;6.95;;;2.50;;
49592;SDS011;35499;51.482;4.264;2023-02-28T02:48:27;3.38;;;1.95;;
49592;SDS011;35499;51.482;4.264;2023-02-28T02:50:57;4.45;;;2.28;;
49592;SDS011;35499;51.482;4.264;2023-02-28T02:53:27;6.00;;;3.00;;
49592;SDS011;35499;51.482;4.264;2023-02-28T02:55:57;7.25;;;2.63;;
49592;SDS011;35499;51.482;4.264;2023-02-28T02:58:26;4.88;;;2.45;;
49592;SDS011;35499;51.482;4.264;2023-02-28T03:00:56;6.13;;;2.90;;
49592;SDS011;35499;51.482;4.264;2023-02-28T03:03:24;8.48;;;2.67;;
49592;SDS011;35499;51.482;4.264;2023-02-28T03:05:57;3.72;;;2.20;;
49592;SDS011;35499;51.482;4.264;2023-02-28T03:08:24;6.72;;;3.22;;
49592;SDS011;35499;51.482;4.264;2023-02-28T03:10:51;5.15;;;2.67;;
49592;SDS011;35499;51.482;4.264;2023-02-28T03:19:16;6.07;;;3.03;;
49592;SDS011;35499;51.482;4.264;2023-02-28T03:24:45;5.00;;;2.25;;
49592;SDS011;35499;51.482;4.264;2023-02-28T03:27:21;6.63;;;2.53;;
49592;SDS011;35499;51.482;4.264;2023-02-28T03:30:00;3.83;;;2.28;;
49592;SDS011;35499;51.482;4.264;2023-02-28T03:32:42;5.97;;;4.00;;
49592;SDS011;35499;51.482;4.264;2023-02-28T03:35:35;10.35;;;4.13;;
49592;SDS011;35499;51.482;4.264;2023-02-28T03:38:06;6.97;;;2.60;;
49592;SDS011;35499;51.482;4.264;2023-02-28T03:40:50;5.70;;;2.45;;
49592;SDS011;35499;51.482;4.264;2023-02-28T03:43:32;5.93;;;3.05;;
49592;SDS011;35499;51.482;4.264;2023-02-28T03:46:02;4.80;;;2.40;;
49592;SDS011;35499;51.482;4.264;2023-02-28T03:48:34;6.03;;;2.92;;
49592;SDS011;35499;51.482;4.264;2023-02-28T03:51:08;5.18;;;3.33;;
49592;SDS011;35499;51.482;4.264;2023-02-28T03:56:30;7.47;;;3.42;;
49592;SDS011;35499;51.482;4.264;2023-02-28T03:59:06;8.23;;;2.67;;
49592;SDS011;35499;51.482;4.264;2023-02-28T04:01:45;6.03;;;3.78;;
49592;SDS011;35499;51.482;4.264;2023-02-28T04:04:13;7.90;;;3.50;;
49592;SDS011;35499;51.482;4.264;2023-02-28T04:09:06;5.93;;;2.93;;
49592;SDS011;35499;51.482;4.264;2023-02-28T04:11:53;5.88;;;3.03;;
49592;SDS011;35499;51.482;4.264;2023-02-28T04:14:18;6.20;;;2.50;;
49592;SDS011;35499;51.482;4.264;2023-02-28T04:16:44;11.88;;;3.30;;
49592;SDS011;35499;51.482;4.264;2023-02-28T04:19:11;6.05;;;2.88;;
49592;SDS011;35499;51.482;4.264;2023-02-28T04:21:38;6.90;;;3.28;;
49592;SDS011;35499;51.482;4.264;2023-02-28T04:24:09;4.30;;;2.40;;
49592;SDS011;35499;51.482;4.264;2023-02-28T04:26:39;7.95;;;3.40;;
49592;SDS011;35499;51.482;4.264;2023-02-28T04:29:08;6.32;;;2.65;;
49592;SDS011;35499;51.482;4.264;2023-02-28T04:31:34;6.28;;;3.30;;
49592;SDS011;35499;51.482;4.264;2023-02-28T04:33:59;7.77;;;3.63;;
49592;SDS011;35499;51.482;4.264;2023-02-28T04:36:25;5.95;;;2.83;;
49592;SDS011;35499;51.482;4.264;2023-02-28T04:38:51;5.90;;;3.00;;
49592;SDS011;35499;51.482;4.264;2023-02-28T04:41:16;5.70;;;2.88;;
49592;SDS011;35499;51.482;4.264;2023-02-28T04:43:42;5.45;;;2.67;;
49592;SDS011;35499;51.482;4.264;2023-02-28T04:46:08;7.53;;;3.28;;
49592;SDS011;35499;51.482;4.264;2023-02-28T04:48:35;6.50;;;2.97;;
49592;SDS011;35499;51.482;4.264;2023-02-28T04:51:06;4.82;;;2.75;;
49592;SDS011;35499;51.482;4.264;2023-02-28T04:53:33;4.28;;;2.33;;
49592;SDS011;35499;51.482;4.264;2023-02-28T04:56:00;5.20;;;2.20;;
49592;SDS011;35499;51.482;4.264;2023-02-28T04:58:25;12.35;;;3.83;;
49592;SDS011;35499;51.482;4.264;2023-02-28T05:00:51;5.30;;;2.97;;
49592;SDS011;35499;51.482;4.264;2023-02-28T05:03:18;6.63;;;4.30;;
49592;SDS011;35499;51.482;4.264;2023-02-28T05:05:43;10.07;;;3.10;;
49592;SDS011;35499;51.482;4.264;2023-02-28T05:08:08;7.40;;;3.17;;
49592;SDS011;35499;51.482;4.264;2023-02-28T05:10:34;6.20;;;2.95;;
49592;SDS011;35499;51.482;4.264;2023-02-28T05:13:00;10.10;;;3.75;;
49592;SDS011;35499;51.482;4.264;2023-02-28T05:15:26;4.95;;;3.30;;
49592;SDS011;35499;51.482;4.264;2023-02-28T05:17:51;5.17;;;3.50;;
49592;SDS011;35499;51.482;4.264;2023-02-28T05:20:16;4.73;;;2.93;;
49592;SDS011;35499;51.482;4.264;2023-02-28T05:22:42;5.07;;;2.72;;
49592;SDS011;35499;51.482;4.264;2023-02-28T05:25:10;7.03;;;3.83;;
49592;SDS011;35499;51.482;4.264;2023-02-28T05:27:38;5.80;;;3.28;;
49592;SDS011;35499;51.482;4.264;2023-02-28T05:30:04;5.90;;;3.22;;
49592;SDS011;35499;51.482;4.264;2023-02-28T05:32:31;6.53;;;3.53;;
49592;SDS011;35499;51.482;4.264;2023-02-28T05:34:56;7.17;;;4.03;;
49592;SDS011;35499;51.482;4.264;2023-02-28T05:37:21;6.43;;;3.13;;
49592;SDS011;35499;51.482;4.264;2023-02-28T05:39:47;5.28;;;3.75;;
49592;SDS011;35499;51.482;4.264;2023-02-28T05:42:14;6.07;;;3.33;;
49592;SDS011;35499;51.482;4.264;2023-02-28T05:44:39;5.57;;;3.20;;
49592;SDS011;35499;51.482;4.264;2023-02-28T05:47:04;6.40;;;3.13;;
49592;SDS011;35499;51.482;4.264;2023-02-28T05:49:30;5.60;;;2.47;;
49592;SDS011;35499;51.482;4.264;2023-02-28T05:51:55;5.60;;;3.10;;
49592;SDS011;35499;51.482;4.264;2023-02-28T05:54:20;7.53;;;3.10;;
49592;SDS011;35499;51.482;4.264;2023-02-28T05:56:45;8.13;;;2.87;;
49592;SDS011;35499;51.482;4.264;2023-02-28T05:59:11;6.17;;;3.80;;
49592;SDS011;35499;51.482;4.264;2023-02-28T06:04:03;4.75;;;2.47;;
49592;SDS011;35499;51.482;4.264;2023-02-28T06:06:30;3.88;;;2.80;;
49592;SDS011;35499;51.482;4.264;2023-02-28T06:08:56;5.28;;;2.80;;
49592;SDS011;35499;51.482;4.264;2023-02-28T06:11:22;7.18;;;2.30;;
49592;SDS011;35499;51.482;4.264;2023-02-28T06:13:53;3.70;;;1.88;;
49592;SDS011;35499;51.482;4.264;2023-02-28T06:16:20;4.43;;;1.85;;
49592;SDS011;35499;51.482;4.264;2023-02-28T06:18:45;6.03;;;2.50;;
49592;SDS011;35499;51.482;4.264;2023-02-28T06:21:11;2.63;;;1.67;;
49592;SDS011;35499;51.482;4.264;2023-02-28T06:23:37;3.83;;;1.88;;
49592;SDS011;35499;51.482;4.264;2023-02-28T06:26:02;4.57;;;1.40;;
49592;SDS011;35499;51.482;4.264;2023-02-28T06:28:28;2.33;;;1.50;;
49592;SDS011;35499;51.482;4.264;2023-02-28T06:30:53;2.45;;;1.08;;
49592;SDS011;35499;51.482;4.264;2023-02-28T06:33:18;2.20;;;1.10;;
49592;SDS011;35499;51.482;4.264;2023-02-28T06:35:44;3.00;;;1.27;;
49592;SDS011;35499;51.482;4.264;2023-02-28T06:38:11;3.80;;;1.38;;
49592;SDS011;35499;51.482;4.264;2023-02-28T06:40:37;2.23;;;1.43;;
49592;SDS011;35499;51.482;4.264;2023-02-28T06:43:02;2.83;;;1.38;;
49592;SDS011;35499;51.482;4.264;2023-02-28T06:45:28;2.70;;;1.30;;
49592;SDS011;35499;51.482;4.264;2023-02-28T06:47:53;3.10;;;1.50;;
49592;SDS011;35499;51.482;4.264;2023-02-28T06:50:18;3.13;;;1.70;;
49592;SDS011;35499;51.482;4.264;2023-02-28T06:52:45;3.42;;;1.50;;
49592;SDS011;35499;51.482;4.264;2023-02-28T06:55:10;5.40;;;2.33;;
49592;SDS011;35499;51.482;4.264;2023-02-28T06:57:36;5.07;;;2.43;;
49592;SDS011;35499;51.482;4.264;2023-02-28T07:00:03;4.40;;;2.53;;
49592;SDS011;35499;51.482;4.264;2023-02-28T07:02:32;7.15;;;1.83;;
49592;SDS011;35499;51.482;4.264;2023-02-28T07:04:58;4.60;;;2.20;;
49592;SDS011;35499;51.482;4.264;2023-02-28T07:07:23;2.27;;;1.30;;
49592;SDS011;35499;51.482;4.264;2023-02-28T07:09:48;4.07;;;2.08;;
49592;SDS011;35499;51.482;4.264;2023-02-28T07:12:14;3.10;;;1.90;;
49592;SDS011;35499;51.482;4.264;2023-02-28T07:14:39;2.90;;;1.87;;
49592;SDS011;35499;51.482;4.264;2023-02-28T07:17:06;2.47;;;1.43;;
49592;SDS011;35499;51.482;4.264;2023-02-28T07:19:32;4.45;;;1.70;;
49592;SDS011;35499;51.482;4.264;2023-02-28T07:21:57;6.00;;;2.88;;
49592;SDS011;35499;51.482;4.264;2023-02-28T07:24:23;3.33;;;1.50;;
49592;SDS011;35499;51.482;4.264;2023-02-28T07:26:50;5.10;;;1.77;;
49592;SDS011;35499;51.482;4.264;2023-02-28T07:29:16;3.00;;;1.63;;
49592;SDS011;35499;51.482;4.264;2023-02-28T07:31:41;3.33;;;1.50;;
49592;SDS011;35499;51.482;4.264;2023-02-28T07:34:06;2.70;;;1.57;;
49592;SDS011;35499;51.482;4.264;2023-02-28T07:36:32;3.93;;;1.37;;
49592;SDS011;35499;51.482;4.264;2023-02-28T07:38:57;6.43;;;3.10;;
49592;SDS011;35499;51.482;4.264;2023-02-28T07:41:23;2.90;;;1.55;;
49592;SDS011;35499;51.482;4.264;2023-02-28T07:43:49;4.22;;;2.13;;
49592;SDS011;35499;51.482;4.264;2023-02-28T07:46:15;3.80;;;1.70;;
49592;SDS011;35499;51.482;4.264;2023-02-28T07:48:41;6.18;;;2.38;;
49592;SDS011;35499;51.482;4.264;2023-02-28T07:51:07;4.05;;;1.70;;
49592;SDS011;35499;51.482;4.264;2023-02-28T07:53:33;5.63;;;2.07;;
49592;SDS011;35499;51.482;4.264;2023-02-28T07:55:59;4.53;;;1.80;;
49592;SDS011;35499;51.482;4.264;2023-02-28T07:58:26;3.58;;;1.83;;
49592;SDS011;35499;51.482;4.264;2023-02-28T08:00:52;3.28;;;2.33;;
49592;SDS011;35499;51.482;4.264;2023-02-28T08:03:18;2.97;;;1.90;;
49592;SDS011;35499;51.482;4.264;2023-02-28T08:05:45;5.90;;;2.50;;
49592;SDS011;35499;51.482;4.264;2023-02-28T08:08:10;2.97;;;2.28;;
49592;SDS011;35499;51.482;4.264;2023-02-28T08:10:36;3.07;;;1.93;;
49592;SDS011;35499;51.482;4.264;2023-02-28T08:13:01;3.45;;;2.00;;
49592;SDS011;35499;51.482;4.264;2023-02-28T08:15:27;3.83;;;1.60;;
49592;SDS011;35499;51.482;4.264;2023-02-28T08:17:52;4.47;;;1.70;;
49592;SDS011;35499;51.482;4.264;2023-02-28T08:20:17;4.43;;;2.30;;
49592;SDS011;35499;51.482;4.264;2023-02-28T08:22:43;3.65;;;2.03;;
49592;SDS011;35499;51.482;4.264;2023-02-28T08:25:09;4.35;;;2.00;;
49592;SDS011;35499;51.482;4.264;2023-02-28T08:27:34;3.25;;;1.88;;
49592;SDS011;35499;51.482;4.264;2023-02-28T08:30:00;3.85;;;2.13;;
49592;SDS011;35499;51.482;4.264;2023-02-28T08:32:26;4.13;;;2.40;;
49592;SDS011;35499;51.482;4.264;2023-02-28T08:34:51;3.85;;;2.20;;
49592;SDS011;35499;51.482;4.264;2023-02-28T08:37:16;5.30;;;2.80;;
49592;SDS011;35499;51.482;4.264;2023-02-28T08:39:42;3.65;;;1.52;;
49592;SDS011;35499;51.482;4.264;2023-02-28T08:42:07;6.20;;;2.97;;
49592;SDS011;35499;51.482;4.264;2023-02-28T08:44:32;3.73;;;2.33;;
49592;SDS011;35499;51.482;4.264;2023-02-28T08:46:58;3.03;;;1.90;;
49592;SDS011;35499;51.482;4.264;2023-02-28T08:49:23;3.47;;;1.70;;
49592;SDS011;35499;51.482;4.264;2023-02-28T08:51:48;4.18;;;2.00;;
49592;SDS011;35499;51.482;4.264;2023-02-28T08:54:14;3.53;;;1.85;;
49592;SDS011;35499;51.482;4.264;2023-02-28T08:56:44;3.83;;;2.25;;
49592;SDS011;35499;51.482;4.264;2023-02-28T08:59:11;4.43;;;2.80;;
49592;SDS011;35499;51.482;4.264;2023-02-28T09:01:36;6.50;;;2.23;;
49592;SDS011;35499;51.482;4.264;2023-02-28T09:04:01;6.47;;;2.57;;
49592;SDS011;35499;51.482;4.264;2023-02-28T09:06:27;3.08;;;1.67;;
49592;SDS011;35499;51.482;4.264;2023-02-28T09:08:55;4.88;;;1.85;;
49592;SDS011;35499;51.482;4.264;2023-02-28T09:11:23;5.63;;;2.00;;
49592;SDS011;35499;51.482;4.264;2023-02-28T09:13:48;6.07;;;1.67;;
49592;SDS011;35499;51.482;4.264;2023-02-28T09:16:14;7.40;;;2.35;;
49592;SDS011;35499;51.482;4.264;2023-02-28T09:18:41;4.70;;;2.00;;
49592;SDS011;35499;51.482;4.264;2023-02-28T09:21:07;4.00;;;2.00;;
49592;SDS011;35499;51.482;4.264;2023-02-28T09:23:34;4.30;;;2.15;;
49592;SDS011;35499;51.482;4.264;2023-02-28T09:26:03;2.97;;;1.60;;
49592;SDS011;35499;51.482;4.264;2023-02-28T09:28:28;2.80;;;1.58;;
49592;SDS011;35499;51.482;4.264;2023-02-28T09:30:54;3.28;;;1.42;;
49592;SDS011;35499;51.482;4.264;2023-02-28T09:33:19;3.80;;;1.52;;
49592;SDS011;35499;51.482;4.264;2023-02-28T09:35:49;3.30;;;2.03;;
49592;SDS011;35499;51.482;4.264;2023-02-28T09:38:16;2.72;;;1.35;;
49592;SDS011;35499;51.482;4.264;2023-02-28T09:40:47;3.47;;;2.80;;
49592;SDS011;35499;51.482;4.264;2023-02-28T09:43:15;4.38;;;1.85;;
49592;SDS011;35499;51.482;4.264;2023-02-28T09:45:42;4.28;;;2.30;;
49592;SDS011;35499;51.482;4.264;2023-02-28T09:48:18;3.67;;;1.50;;
49592;SDS011;35499;51.482;4.264;2023-02-28T09:53:25;2.90;;;1.25;;
49592;SDS011;35499;51.482;4.264;2023-02-28T09:55:59;2.70;;;1.08;;
49592;SDS011;35499;51.482;4.264;2023-02-28T10:13:27;2.63;;;1.55;;
49592;SDS011;35499;51.482;4.264;2023-02-28T10:16:01;2.65;;;1.98;;
49592;SDS011;35499;51.482;4.264;2023-02-28T10:21:45;6.55;;;2.28;;
49592;SDS011;35499;51.482;4.264;2023-02-28T10:24:26;2.85;;;2.53;;
49592;SDS011;35499;51.482;4.264;2023-02-28T10:26:56;3.92;;;2.58;;
49592;SDS011;35499;51.482;4.264;2023-02-28T10:29:26;3.97;;;2.20;;
49592;SDS011;35499;51.482;4.264;2023-02-28T10:34:18;2.97;;;2.03;;
49592;SDS011;35499;51.482;4.264;2023-02-28T10:36:43;3.10;;;2.20;;
49592;SDS011;35499;51.482;4.264;2023-02-28T10:42:25;3.83;;;2.22;;
49592;SDS011;35499;51.482;4.264;2023-02-28T10:45:04;3.42;;;1.20;;
49592;SDS011;35499;51.482;4.264;2023-02-28T10:47:31;2.70;;;1.45;;
49592;SDS011;35499;51.482;4.264;2023-02-28T10:49:59;2.38;;;1.75;;
49592;SDS011;35499;51.482;4.264;2023-02-28T10:52:38;1.60;;;0.68;;
49592;SDS011;35499;51.482;4.264;2023-02-28T10:55:15;3.55;;;1.58;;
49592;SDS011;35499;51.482;4.264;2023-02-28T10:57:46;2.13;;;1.02;;
49592;SDS011;35499;51.482;4.264;2023-02-28T11:00:14;2.50;;;1.00;;
49592;SDS011;35499;51.482;4.264;2023-02-28T11:02:44;2.88;;;1.17;;
49592;SDS011;35499;51.482;4.264;2023-02-28T11:08:13;2.40;;;1.15;;
49592;SDS011;35499;51.482;4.264;2023-02-28T11:10:43;2.80;;;1.02;;
49592;SDS011;35499;51.482;4.264;2023-02-28T11:13:20;3.53;;;1.25;;
49592;SDS011;35499;51.482;4.264;2023-02-28T11:15:56;4.75;;;1.00;;
49592;SDS011;35499;51.482;4.264;2023-02-28T11:18:36;3.40;;;1.30;;
49592;SDS011;35499;51.482;4.264;2023-02-28T11:21:25;2.80;;;1.40;;
49592;SDS011;35499;51.482;4.264;2023-02-28T11:23:56;3.30;;;1.05;;
49592;SDS011;35499;51.482;4.264;2023-02-28T11:26:37;2.40;;;0.95;;
49592;SDS011;35499;51.482;4.264;2023-02-28T11:34:29;3.25;;;1.10;;
49592;SDS011;35499;51.482;4.264;2023-02-28T11:36:56;2.42;;;0.75;;
49592;SDS011;35499;51.482;4.264;2023-02-28T11:39:24;3.40;;;1.20;;
49592;SDS011;35499;51.482;4.264;2023-02-28T11:44:22;2.47;;;1.30;;
49592;SDS011;35499;51.482;4.264;2023-02-28T11:46:50;2.38;;;0.98;;
49592;SDS011;35499;51.482;4.264;2023-02-28T11:52:10;1.92;;;0.90;;
49592;SDS011;35499;51.482;4.264;2023-02-28T12:00:25;3.17;;;1.27;;
49592;SDS011;35499;51.482;4.264;2023-02-28T12:06:16;2.95;;;0.93;;
49592;SDS011;35499;51.482;4.264;2023-02-28T12:11:36;2.80;;;1.33;;
49592;SDS011;35499;51.482;4.264;2023-02-28T12:22:28;2.40;;;1.15;;
49592;SDS011;35499;51.482;4.264;2023-02-28T12:27:33;2.47;;;1.05;;
49592;SDS011;35499;51.482;4.264;2023-02-28T12:30:49;2.60;;;1.00;;
49592;SDS011;35499;51.482;4.264;2023-02-28T12:32:55;2.45;;;1.13;;
49592;SDS011;35499;51.482;4.264;2023-02-28T12:38:05;3.13;;;0.95;;
49592;SDS011;35499;51.482;4.264;2023-02-28T12:40:45;3.38;;;1.38;;
49592;SDS011;35499;51.482;4.264;2023-02-28T12:43:30;2.53;;;1.00;;
49592;SDS011;35499;51.482;4.264;2023-02-28T12:45:59;2.50;;;1.00;;
49592;SDS011;35499;51.482;4.264;2023-02-28T12:48:33;2.30;;;0.80;;
49592;SDS011;35499;51.482;4.264;2023-02-28T12:51:04;5.10;;;1.10;;
49592;SDS011;35499;51.482;4.264;2023-02-28T12:59:13;2.45;;;1.13;;
49592;SDS011;35499;51.482;4.264;2023-02-28T13:01:56;1.55;;;0.80;;
49592;SDS011;35499;51.482;4.264;2023-02-28T13:10:05;3.17;;;1.17;;
49592;SDS011;35499;51.482;4.264;2023-02-28T13:12:34;2.42;;;1.05;;
49592;SDS011;35499;51.482;4.264;2023-02-28T13:15:05;2.25;;;0.98;;
49592;SDS011;35499;51.482;4.264;2023-02-28T13:17:36;2.63;;;1.13;;
49592;SDS011;35499;51.482;4.264;2023-02-28T13:20:04;2.67;;;1.10;;
49592;SDS011;35499;51.482;4.264;2023-02-28T13:22:42;2.53;;;0.98;;
49592;SDS011;35499;51.482;4.264;2023-02-28T13:27:59;3.35;;;1.25;;
49592;SDS011;35499;51.482;4.264;2023-02-28T13:33:31;5.13;;;1.00;;
49592;SDS011;35499;51.482;4.264;2023-02-28T13:36:09;2.85;;;0.75;;
49592;SDS011;35499;51.482;4.264;2023-02-28T13:49:29;1.80;;;0.90;;
49592;SDS011;35499;51.482;4.264;2023-02-28T14:00:02;2.58;;;1.27;;
49592;SDS011;35499;51.482;4.264;2023-02-28T14:02:40;2.28;;;1.05;;
49592;SDS011;35499;51.482;4.264;2023-02-28T14:05:29;2.53;;;1.50;;
49592;SDS011;35499;51.482;4.264;2023-02-28T14:07:58;2.05;;;0.80;;
49592;SDS011;35499;51.482;4.264;2023-02-28T14:10:30;2.25;;;0.88;;
49592;SDS011;35499;51.482;4.264;2023-02-28T14:13:01;1.92;;;0.80;;
49592;SDS011;35499;51.482;4.264;2023-02-28T14:21:00;2.20;;;1.33;;
49592;SDS011;35499;51.482;4.264;2023-02-28T14:23:45;2.15;;;1.02;;
49592;SDS011;35499;51.482;4.264;2023-02-28T14:32:28;2.50;;;1.30;;
49592;SDS011;35499;51.482;4.264;2023-02-28T14:37:54;3.63;;;1.50;;
49592;SDS011;35499;51.482;4.264;2023-02-28T14:40:41;2.80;;;1.35;;
49592;SDS011;35499;51.482;4.264;2023-02-28T14:43:06;2.08;;;1.30;;
49592;SDS011;35499;51.482;4.264;2023-02-28T14:45:47;1.58;;;0.85;;
49592;SDS011;35499;51.482;4.264;2023-02-28T14:48:15;2.95;;;1.10;;
49592;SDS011;35499;51.482;4.264;2023-02-28T14:53:15;3.42;;;1.77;;
49592;SDS011;35499;51.482;4.264;2023-02-28T14:55:47;2.88;;;1.40;;
49592;SDS011;35499;51.482;4.264;2023-02-28T15:01:19;3.55;;;2.10;;
49592;SDS011;35499;51.482;4.264;2023-02-28T15:03:47;2.85;;;1.40;;
49592;SDS011;35499;51.482;4.264;2023-02-28T15:06:14;2.45;;;1.20;;
49592;SDS011;35499;51.482;4.264;2023-02-28T15:08:42;2.17;;;1.67;;
49592;SDS011;35499;51.482;4.264;2023-02-28T15:11:16;2.60;;;1.42;;
49592;SDS011;35499;51.482;4.264;2023-02-28T15:13:52;3.20;;;1.77;;
49592;SDS011;35499;51.482;4.264;2023-02-28T15:16:22;2.25;;;1.45;;
49592;SDS011;35499;51.482;4.264;2023-02-28T15:18:54;2.50;;;1.45;;
49592;SDS011;35499;51.482;4.264;2023-02-28T15:21:25;3.08;;;2.10;;
49592;SDS011;35499;51.482;4.264;2023-02-28T15:23:58;3.20;;;1.65;;
49592;SDS011;35499;51.482;4.264;2023-02-28T15:26:35;3.85;;;2.10;;
49592;SDS011;35499;51.482;4.264;2023-02-28T15:29:15;2.05;;;1.50;;
49592;SDS011;35499;51.482;4.264;2023-02-28T15:34:19;3.03;;;2.08;;
49592;SDS011;35499;51.482;4.264;2023-02-28T15:36:46;3.05;;;1.17;;
49592;SDS011;35499;51.482;4.264;2023-02-28T15:39:19;2.05;;;1.48;;
49592;SDS011;35499;51.482;4.264;2023-02-28T15:41:49;2.08;;;1.60;;
49592;SDS011;35499;51.482;4.264;2023-02-28T15:46:43;3.20;;;2.25;;
49592;SDS011;35499;51.482;4.264;2023-02-28T15:49:19;2.70;;;2.40;;
49592;SDS011;35499;51.482;4.264;2023-02-28T15:51:47;4.10;;;1.85;;
49592;SDS011;35499;51.482;4.264;2023-02-28T15:54:17;2.83;;;2.38;;
49592;SDS011;35499;51.482;4.264;2023-02-28T15:56:53;3.00;;;2.17;;
49592;SDS011;35499;51.482;4.264;2023-02-28T15:59:21;3.90;;;2.67;;
49592;SDS011;35499;51.482;4.264;2023-02-28T16:04:34;2.80;;;1.90;;
49592;SDS011;35499;51.482;4.264;2023-02-28T16:07:04;1.98;;;1.33;;
49592;SDS011;35499;51.482;4.264;2023-02-28T16:09:30;2.00;;;1.60;;
49592;SDS011;35499;51.482;4.264;2023-02-28T16:12:00;3.75;;;1.80;;
49592;SDS011;35499;51.482;4.264;2023-02-28T16:14:27;3.20;;;2.85;;
49592;SDS011;35499;51.482;4.264;2023-02-28T16:17:02;4.82;;;2.90;;
49592;SDS011;35499;51.482;4.264;2023-02-28T16:19:29;5.03;;;3.17;;
49592;SDS011;35499;51.482;4.264;2023-02-28T16:21:56;3.63;;;2.72;;
49592;SDS011;35499;51.482;4.264;2023-02-28T16:24:21;3.50;;;2.08;;
49592;SDS011;35499;51.482;4.264;2023-02-28T16:26:47;3.70;;;2.80;;
49592;SDS011;35499;51.482;4.264;2023-02-28T16:29:14;3.75;;;1.98;;
49592;SDS011;35499;51.482;4.264;2023-02-28T16:31:48;3.28;;;2.97;;
49592;SDS011;35499;51.482;4.264;2023-02-28T16:34:13;4.10;;;2.90;;
49592;SDS011;35499;51.482;4.264;2023-02-28T16:36:38;4.00;;;2.55;;
49592;SDS011;35499;51.482;4.264;2023-02-28T16:39:04;4.50;;;2.33;;
49592;SDS011;35499;51.482;4.264;2023-02-28T16:41:30;3.47;;;2.42;;
49592;SDS011;35499;51.482;4.264;2023-02-28T16:43:55;3.58;;;2.80;;
49592;SDS011;35499;51.482;4.264;2023-02-28T16:46:23;5.03;;;2.97;;
49592;SDS011;35499;51.482;4.264;2023-02-28T16:48:52;5.20;;;2.65;;
49592;SDS011;35499;51.482;4.264;2023-02-28T16:51:17;3.70;;;2.90;;
49592;SDS011;35499;51.482;4.264;2023-02-28T16:53:43;3.08;;;2.47;;
49592;SDS011;35499;51.482;4.264;2023-02-28T16:56:27;3.63;;;3.13;;
49592;SDS011;35499;51.482;4.264;2023-02-28T16:58:54;6.07;;;2.08;;
49592;SDS011;35499;51.482;4.264;2023-02-28T17:01:24;3.83;;;2.70;;
49592;SDS011;35499;51.482;4.264;2023-02-28T17:03:49;9.95;;;3.72;;
49592;SDS011;35499;51.482;4.264;2023-02-28T17:06:19;4.20;;;2.37;;
49592;SDS011;35499;51.482;4.264;2023-02-28T17:08:49;7.80;;;4.10;;
49592;SDS011;35499;51.482;4.264;2023-02-28T17:11:15;8.38;;;4.50;;
49592;SDS011;35499;51.482;4.264;2023-02-28T17:13:41;6.82;;;3.15;;
49592;SDS011;35499;51.482;4.264;2023-02-28T17:16:09;5.57;;;2.80;;
49592;SDS011;35499;51.482;4.264;2023-02-28T17:18:42;5.68;;;3.40;;
49592;SDS011;35499;51.482;4.264;2023-02-28T17:21:12;5.40;;;3.40;;
49592;SDS011;35499;51.482;4.264;2023-02-28T17:23:39;4.43;;;2.65;;
49592;SDS011;35499;51.482;4.264;2023-02-28T17:26:04;4.95;;;2.53;;
49592;SDS011;35499;51.482;4.264;2023-02-28T17:28:31;3.55;;;2.70;;
49592;SDS011;35499;51.482;4.264;2023-02-28T17:30:57;3.33;;;2.60;;
49592;SDS011;35499;51.482;4.264;2023-02-28T17:33:22;4.25;;;3.00;;
49592;SDS011;35499;51.482;4.264;2023-02-28T17:35:47;4.17;;;1.80;;
49592;SDS011;35499;51.482;4.264;2023-02-28T17:38:16;3.53;;;2.87;;
49592;SDS011;35499;51.482;4.264;2023-02-28T17:40:43;3.90;;;2.88;;
49592;SDS011;35499;51.482;4.264;2023-02-28T17:43:09;3.60;;;2.60;;
49592;SDS011;35499;51.482;4.264;2023-02-28T17:45:35;7.73;;;4.00;;